createdAt,value
2022-10-30T00:00:06.114Z,438.80
2022-10-30T00:03:00.269Z,420.85
2022-10-30T00:05:51.590Z,428.23
2022-10-30T00:08:39.647Z,416.77
2022-10-30T00:11:29.364Z,409.52
2022-10-30T00:14:19.139Z,435.02
2022-10-30T00:17:07.079Z,436.05
2022-10-30T00:19:54.991Z,426.60
2022-10-30T00:22:42.894Z,446.55
2022-10-30T00:25:30.811Z,435.83
2022-10-30T00:28:18.760Z,438.55
2022-10-30T00:31:08.544Z,444.60
2022-10-30T00:33:56.553Z,444.27
2022-10-30T00:36:44.500Z,414.85
2022-10-30T00:39:32.471Z,436.75
2022-10-30T00:42:20.605Z,426.20
2022-10-30T00:45:12.251Z,443.38
2022-10-30T00:48:05.281Z,416.77
2022-10-30T00:50:54.354Z,432.13
2022-10-30T00:53:43.960Z,424.25
2022-10-30T00:56:32.772Z,438.60
2022-10-30T00:59:25.324Z,428.38
2022-10-30T01:02:13.552Z,441.40
2022-10-30T01:05:03.955Z,438.98
2022-10-30T01:07:52.182Z,429.02
2022-10-30T01:10:40.638Z,451.83
2022-10-30T01:13:30.158Z,415.42
2022-10-30T01:16:34.362Z,434.33
2022-10-30T01:19:33.945Z,430.95
2022-10-30T01:22:40.954Z,423.38
2022-10-30T01:25:44.090Z,433.67
2022-10-30T01:28:51.276Z,425.65
2022-10-30T01:31:51.617Z,441.90
2022-10-30T01:34:48.073Z,431.92
2022-10-30T01:37:44.820Z,430.05
2022-10-30T01:40:34.150Z,454.45
2022-10-30T01:43:22.313Z,455.70
2022-10-30T01:46:32.573Z,445.95
2022-10-30T01:49:47.991Z,460.63
2022-10-30T01:52:48.482Z,448.13
2022-10-30T01:55:43.233Z,437.05
2022-10-30T01:58:40.079Z,436.65
2022-10-30T02:01:32.860Z,452.15
2022-10-30T02:04:21.352Z,449.98
2022-10-30T02:07:12.628Z,457.92
2022-10-30T02:10:08.935Z,456.02
2022-10-30T02:12:57.195Z,456.95
2022-10-30T02:15:48.302Z,467.65
2022-10-30T02:18:36.284Z,425.35
2022-10-30T02:21:26.785Z,438.70
2022-10-30T02:24:14.731Z,438.35
2022-10-30T02:27:02.670Z,453.27
2022-10-30T02:29:50.532Z,436.02
2022-10-30T02:32:38.716Z,433.63
2022-10-30T02:35:26.881Z,434.45
2022-10-30T02:38:17.227Z,442.40
2022-10-30T02:41:06.424Z,449.30
2022-10-30T02:43:54.448Z,455.42
2022-10-30T02:46:42.688Z,436.33
2022-10-30T02:49:30.699Z,427.13
2022-10-30T02:52:18.657Z,442.35
2022-10-30T02:55:08.542Z,439.38
2022-10-30T02:57:58.984Z,449.40
2022-10-30T03:00:47.020Z,443.70
2022-10-30T03:03:35.197Z,456.15
2022-10-30T03:06:23.141Z,439.73
2022-10-30T03:09:11.743Z,437.50
2022-10-30T03:12:00.962Z,427.27
2022-10-30T03:14:48.875Z,454.50
2022-10-30T03:17:36.912Z,448.40
2022-10-30T03:20:24.840Z,438.73
2022-10-30T03:23:12.717Z,432.40
2022-10-30T03:26:00.888Z,433.17
2022-10-30T03:28:50.933Z,461.85
2022-10-30T03:31:38.843Z,453.98
2022-10-30T03:34:36.608Z,443.73
2022-10-30T03:37:27.673Z,440.67
2022-10-30T03:40:16.423Z,434.73
2022-10-30T03:43:04.568Z,454.17
2022-10-30T03:45:55.305Z,450.13
2022-10-30T03:48:43.200Z,450.92
2022-10-30T03:51:33.987Z,454.85
2022-10-30T03:54:21.865Z,426.80
2022-10-30T03:57:09.819Z,432.15
2022-10-30T04:00:07.756Z,446.65
2022-10-30T04:03:17.872Z,428.45
2022-10-30T04:06:06.856Z,425.60
2022-10-30T04:08:55.553Z,426.80
2022-10-30T04:11:45.126Z,439.52
2022-10-30T04:14:33.338Z,430.23
2022-10-30T04:17:21.331Z,420.45
2022-10-30T04:20:11.792Z,416.55
2022-10-30T04:23:01.769Z,447.98
2022-10-30T04:25:50.069Z,402.95
2022-10-30T04:28:39.153Z,429.15
2022-10-30T04:31:27.132Z,414.58
2022-10-30T04:34:15.333Z,399.45
2022-10-30T04:37:05.333Z,394.88
2022-10-30T04:39:53.337Z,407.40
2022-10-30T04:42:47.785Z,393.65
2022-10-30T04:45:37.468Z,408.50
2022-10-30T04:48:25.985Z,414.08
2022-10-30T04:51:15.966Z,417.70
2022-10-30T04:54:06.916Z,401.30
2022-10-30T04:56:56.348Z,389.10
2022-10-30T04:59:44.337Z,370.10
2022-10-30T05:02:32.356Z,395.60
2022-10-30T05:05:20.598Z,404.85
2022-10-30T05:08:09.765Z,387.08
2022-10-30T05:10:59.395Z,407.60
2022-10-30T05:13:47.437Z,369.27
2022-10-30T05:16:35.625Z,372.55
2022-10-30T05:19:25.613Z,355.67
2022-10-30T05:22:16.427Z,384.70
2022-10-30T05:25:05.074Z,368.63
2022-10-30T05:28:00.559Z,376.42
2022-10-30T05:30:53.471Z,369.58
2022-10-30T05:37:11.693Z,361.05
2022-10-30T05:39:59.846Z,364.00
2022-10-30T05:42:50.163Z,388.65
2022-10-30T05:45:38.452Z,344.55
2022-10-30T05:48:28.443Z,372.08
2022-10-30T05:51:16.663Z,367.60
2022-10-30T05:54:12.942Z,396.70
2022-10-30T05:57:13.048Z,370.88
2022-10-30T06:00:01.800Z,377.85
2022-10-30T06:02:50.579Z,353.27
2022-10-30T06:05:18.234Z,381.55
2022-10-30T06:07:46.631Z,381.60
2022-10-30T06:10:16.020Z,363.48
2022-10-30T06:13:07.937Z,355.73
2022-10-30T06:15:47.492Z,371.27
2022-10-30T06:18:15.202Z,389.95
2022-10-30T06:20:45.949Z,356.27
2022-10-30T06:23:32.106Z,357.58
2022-10-30T06:26:21.618Z,374.85
2022-10-30T06:28:54.913Z,364.77
2022-10-30T06:31:22.523Z,370.90
2022-10-30T06:33:50.186Z,381.77
2022-10-30T06:36:18.378Z,381.88
2022-10-30T06:38:46.130Z,358.35
2022-10-30T06:41:17.511Z,375.52
2022-10-30T06:44:01.031Z,343.80
2022-10-30T06:46:33.702Z,368.15
2022-10-30T06:49:01.932Z,379.40
2022-10-30T06:51:30.807Z,361.67
2022-10-30T06:53:59.842Z,366.88
2022-10-30T06:56:39.792Z,370.77
2022-10-30T06:59:20.756Z,394.85
2022-10-30T07:01:59.203Z,355.30
2022-10-30T07:04:36.990Z,361.73
2022-10-30T07:07:05.026Z,391.98
2022-10-30T07:09:32.752Z,363.13
2022-10-30T07:12:06.588Z,382.23
2022-10-30T07:14:43.152Z,379.83
2022-10-30T07:17:31.072Z,355.55
2022-10-30T07:20:03.101Z,384.40
2022-10-30T07:22:31.687Z,361.52
2022-10-30T07:24:59.961Z,407.15
2022-10-30T07:27:43.472Z,398.58
2022-10-30T07:30:28.754Z,381.67
2022-10-30T07:33:12.242Z,392.35
2022-10-30T07:36:01.407Z,397.20
2022-10-30T07:38:52.415Z,386.52
2022-10-30T07:41:31.805Z,424.42
2022-10-30T07:44:18.583Z,395.40
2022-10-30T07:46:58.481Z,416.73
2022-10-30T07:49:39.692Z,411.98
2022-10-30T07:52:11.785Z,428.27
2022-10-30T07:54:42.215Z,432.40
2022-10-30T07:57:25.616Z,456.73
2022-10-30T08:00:28.300Z,435.67
2022-10-30T08:03:07.198Z,407.92
2022-10-30T08:05:46.873Z,451.88
2022-10-30T08:08:20.964Z,454.25
2022-10-30T08:10:56.650Z,439.38
2022-10-30T08:13:25.420Z,474.08
2022-10-30T08:15:53.091Z,455.33
2022-10-30T08:18:22.139Z,483.52
2022-10-30T08:20:51.277Z,473.10
2022-10-30T08:23:21.683Z,480.15
2022-10-30T08:25:49.489Z,482.20
2022-10-30T08:28:17.148Z,481.98
2022-10-30T08:30:45.733Z,450.58
2022-10-30T08:33:16.975Z,484.25
2022-10-30T08:36:00.000Z,475.73
2022-10-30T08:38:28.807Z,484.45
2022-10-30T08:41:19.564Z,467.27
2022-10-30T08:43:50.266Z,502.05
2022-10-30T08:46:18.923Z,493.92
2022-10-30T08:48:47.186Z,469.95
2022-10-30T08:51:16.207Z,504.33
2022-10-30T08:53:46.030Z,493.70
2022-10-30T08:56:15.879Z,482.27
2022-10-30T08:58:56.003Z,479.05
2022-10-30T09:01:23.965Z,489.25
2022-10-30T09:04:10.089Z,480.55
2022-10-30T09:06:57.967Z,494.75
2022-10-30T09:09:48.123Z,495.50
2022-10-30T09:12:17.192Z,504.33
2022-10-30T09:14:46.779Z,514.25
2022-10-30T09:17:14.678Z,505.70
2022-10-30T09:19:45.695Z,518.08
2022-10-30T09:22:20.043Z,535.67
2022-10-30T09:24:47.787Z,527.33
2022-10-30T09:27:48.168Z,499.35
2022-10-30T09:30:17.630Z,517.35
2022-10-30T09:32:55.386Z,521.00
2022-10-30T09:35:27.539Z,535.35
2022-10-30T09:37:57.516Z,522.33
2022-10-30T09:40:35.534Z,544.33
2022-10-30T09:43:09.573Z,534.60
2022-10-30T09:46:09.039Z,545.65
2022-10-30T09:49:01.889Z,549.78
2022-10-30T09:51:57.039Z,522.90
2022-10-30T09:54:39.570Z,510.40
2022-10-30T09:57:19.637Z,520.30
2022-10-30T09:59:59.988Z,524.72
2022-10-30T10:02:37.691Z,527.85
2022-10-30T10:05:14.151Z,545.10
2022-10-30T10:08:05.040Z,521.67
2022-10-30T10:10:55.588Z,532.65
2022-10-30T10:13:33.638Z,517.03
2022-10-30T10:16:08.659Z,509.27
2022-10-30T10:18:47.398Z,508.38
2022-10-30T10:21:24.870Z,506.55
2022-10-30T10:23:55.412Z,499.55
2022-10-30T10:26:39.607Z,464.40
2022-10-30T10:29:32.267Z,450.80
2022-10-30T10:32:14.090Z,479.20
2022-10-30T10:34:53.423Z,434.48
2022-10-30T10:37:31.650Z,442.60
2022-10-30T10:40:13.141Z,462.45
2022-10-30T10:42:53.593Z,457.88
2022-10-30T10:45:30.241Z,466.05
2022-10-30T10:50:49.437Z,451.77
2022-10-30T10:53:23.652Z,440.98
2022-10-30T10:55:53.910Z,451.52
2022-10-30T10:58:29.189Z,455.75
2022-10-30T11:00:58.913Z,443.48
2022-10-30T11:03:33.657Z,439.92
2022-10-30T11:06:09.251Z,452.17
2022-10-30T11:08:37.622Z,440.15
2022-10-30T11:11:07.592Z,443.70
2022-10-30T11:13:39.632Z,438.50
2022-10-30T11:16:18.473Z,449.60
2022-10-30T11:18:48.556Z,414.02
2022-10-30T11:21:19.817Z,444.15
2022-10-30T11:23:49.294Z,440.85
2022-10-30T11:26:34.498Z,414.00
2022-10-30T11:29:12.270Z,423.63
2022-10-30T11:31:41.482Z,425.42
2022-10-30T11:34:31.734Z,375.02
2022-10-30T11:36:59.494Z,368.02
2022-10-30T11:39:29.043Z,380.40
2022-10-30T11:42:04.600Z,380.85
2022-10-30T11:44:36.845Z,385.88
2022-10-30T11:47:06.161Z,361.33
2022-10-30T11:49:39.619Z,348.30
2022-10-30T11:52:08.891Z,365.33
2022-10-30T11:54:39.417Z,341.42
2022-10-30T11:57:23.535Z,342.17
2022-10-30T11:59:59.313Z,347.30
2022-10-30T12:02:42.812Z,347.95
2022-10-30T12:05:31.561Z,351.85
2022-10-30T12:08:18.256Z,341.95
2022-10-30T12:10:54.798Z,339.77
2022-10-30T12:13:24.559Z,329.35
2022-10-30T12:16:07.706Z,317.50
2022-10-30T12:18:35.744Z,317.15
2022-10-30T12:21:04.604Z,317.70
2022-10-30T12:23:33.302Z,290.67
2022-10-30T12:26:02.693Z,290.88
2022-10-30T12:28:32.405Z,298.08
2022-10-30T12:31:07.301Z,273.05
2022-10-30T12:33:39.421Z,271.42
2022-10-30T12:36:11.091Z,260.95
2022-10-30T12:38:44.234Z,255.77
2022-10-30T12:41:18.789Z,253.93
2022-10-30T12:43:51.001Z,246.88
2022-10-30T12:46:34.654Z,239.90
2022-10-30T12:49:12.554Z,236.25
2022-10-30T12:51:47.237Z,250.43
2022-10-30T12:54:22.718Z,214.02
2022-10-30T12:56:57.005Z,232.70
2022-10-30T12:59:35.799Z,235.05
2022-10-30T13:02:19.338Z,233.38
2022-10-30T13:04:51.336Z,218.15
2022-10-30T13:07:24.496Z,239.55
2022-10-30T13:10:03.146Z,223.43
2022-10-30T13:12:35.246Z,235.32
2022-10-30T13:15:07.450Z,237.20
2022-10-30T13:17:36.475Z,212.93
2022-10-30T13:20:13.746Z,231.88
2022-10-30T13:22:48.466Z,227.13
2022-10-30T13:25:24.563Z,245.65
2022-10-30T13:27:56.730Z,227.38
2022-10-30T13:30:28.431Z,227.38
2022-10-30T13:33:08.604Z,250.18
2022-10-30T13:35:42.573Z,262.27
2022-10-30T13:38:36.394Z,252.48
2022-10-30T13:41:17.011Z,270.02
2022-10-30T13:43:55.799Z,269.45
2022-10-30T13:46:31.737Z,273.67
2022-10-30T13:49:11.004Z,257.05
2022-10-30T13:51:43.233Z,280.58
2022-10-30T13:54:18.333Z,270.45
2022-10-30T13:56:48.440Z,286.50
2022-10-30T13:59:34.644Z,285.08
2022-10-30T14:02:11.306Z,308.38
2022-10-30T14:04:49.440Z,304.80
2022-10-30T14:07:25.238Z,309.88
2022-10-30T14:10:00.276Z,294.58
2022-10-30T14:12:52.957Z,303.85
2022-10-30T14:15:28.547Z,287.25
2022-10-30T14:18:28.537Z,297.48
2022-10-30T14:20:59.308Z,309.05
2022-10-30T14:23:33.513Z,313.88
2022-10-30T14:26:21.452Z,304.55
2022-10-30T14:28:51.039Z,299.13
2022-10-30T14:31:21.157Z,315.38
2022-10-30T14:33:50.702Z,309.63
2022-10-30T14:36:25.207Z,293.50
2022-10-30T14:38:55.008Z,320.60
2022-10-30T14:41:35.852Z,319.92
2022-10-30T14:44:20.598Z,323.45
2022-10-30T14:47:01.887Z,345.90
2022-10-30T14:49:45.057Z,359.05
2022-10-30T14:52:23.070Z,350.15
2022-10-30T14:55:00.367Z,368.80
2022-10-30T14:57:47.806Z,354.35
2022-10-30T15:00:30.541Z,369.25
2022-10-30T15:03:05.110Z,353.45
2022-10-30T15:05:44.299Z,386.60
2022-10-30T15:08:37.417Z,386.35
2022-10-30T15:11:22.409Z,391.38
2022-10-30T15:13:54.417Z,382.80
2022-10-30T15:16:23.346Z,415.38
2022-10-30T15:19:00.141Z,400.13
2022-10-30T15:21:29.729Z,410.30
2022-10-30T15:24:01.109Z,421.77
2022-10-30T15:26:34.926Z,432.00
2022-10-30T15:29:03.628Z,418.17
2022-10-30T15:31:33.154Z,432.30
2022-10-30T15:34:00.856Z,413.63
2022-10-30T15:36:31.388Z,449.25
2022-10-30T15:39:10.915Z,421.45
2022-10-30T15:41:44.743Z,441.33
2022-10-30T15:46:49.622Z,444.23
2022-10-30T15:49:25.890Z,425.45
2022-10-30T15:51:53.664Z,435.98
2022-10-30T15:54:24.587Z,441.63
2022-10-30T15:57:27.558Z,449.92
2022-10-30T15:59:52.427Z,439.15
2022-10-30T16:02:22.882Z,419.77
2022-10-30T16:04:51.194Z,396.02
2022-10-30T16:07:21.172Z,419.40
2022-10-30T16:09:58.038Z,405.08
2022-10-30T16:12:27.570Z,421.15
2022-10-30T16:14:56.315Z,427.05
2022-10-30T16:17:25.326Z,410.63
2022-10-30T16:19:55.603Z,422.92
2022-10-30T16:22:27.640Z,431.38
2022-10-30T16:24:57.912Z,404.73
2022-10-30T16:27:27.321Z,431.20
2022-10-30T16:29:58.420Z,416.05
2022-10-30T16:32:28.323Z,389.63
2022-10-30T16:34:58.180Z,400.10
2022-10-30T16:37:29.094Z,385.58
2022-10-30T16:40:00.935Z,404.02
2022-10-30T16:42:28.853Z,409.55
2022-10-30T16:45:45.313Z,396.10
2022-10-30T16:48:19.783Z,380.65
2022-10-30T16:50:48.195Z,368.63
2022-10-30T16:53:20.581Z,374.00
2022-10-30T16:55:49.850Z,376.65
2022-10-30T16:58:19.671Z,385.08
2022-10-30T17:00:52.405Z,387.67
2022-10-30T17:03:26.378Z,368.40
2022-10-30T17:05:59.312Z,386.55
2022-10-30T17:08:34.408Z,385.88
2022-10-30T17:11:05.575Z,384.45
2022-10-30T17:13:36.047Z,399.23
2022-10-30T17:16:21.835Z,400.73
2022-10-30T17:18:52.453Z,400.15
2022-10-30T17:21:23.307Z,377.63
2022-10-30T17:23:52.558Z,389.33
2022-10-30T17:26:21.666Z,381.98
2022-10-30T17:28:49.680Z,395.77
2022-10-30T17:31:22.990Z,394.50
2022-10-30T17:34:06.863Z,386.42
2022-10-30T17:36:34.499Z,392.95
2022-10-30T17:39:02.121Z,393.27
2022-10-30T17:41:31.345Z,414.63
2022-10-30T17:43:59.208Z,400.08
2022-10-30T17:46:26.835Z,414.55
2022-10-30T17:48:54.704Z,407.15
2022-10-30T17:51:22.348Z,405.35
2022-10-30T17:53:51.086Z,426.08
2022-10-30T17:56:21.693Z,392.35
2022-10-30T17:58:50.679Z,414.77
2022-10-30T18:01:21.393Z,447.42
2022-10-30T18:03:49.470Z,478.38
2022-10-30T18:06:18.836Z,466.90
2022-10-30T18:08:50.704Z,502.48
2022-10-30T18:11:21.209Z,474.83
2022-10-30T18:13:51.595Z,490.83
2022-10-30T18:16:20.153Z,471.63
2022-10-30T18:18:49.999Z,483.33
2022-10-30T18:21:20.141Z,499.17
2022-10-30T18:23:55.073Z,471.77
2022-10-30T18:26:24.822Z,474.52
2022-10-30T18:28:54.305Z,492.30
2022-10-30T18:31:23.729Z,457.52
2022-10-30T18:33:51.820Z,484.83
2022-10-30T18:36:21.997Z,471.13
2022-10-30T18:38:50.094Z,492.25
2022-10-30T18:41:20.210Z,461.08
2022-10-30T18:43:47.848Z,458.70
2022-10-30T18:46:17.472Z,472.02
2022-10-30T18:48:45.517Z,450.85
2022-10-30T18:51:17.892Z,464.17
2022-10-30T18:53:51.331Z,476.17
2022-10-30T18:56:20.202Z,464.10
2022-10-30T18:58:47.830Z,429.95
2022-10-30T19:01:18.228Z,429.85
2022-10-30T19:03:47.261Z,438.30
2022-10-30T19:06:17.008Z,469.00
2022-10-30T19:08:44.779Z,431.92
2022-10-30T19:11:15.801Z,439.05
2022-10-30T19:13:45.309Z,426.42
2022-10-30T19:16:15.106Z,425.85
2022-10-30T19:18:44.528Z,448.25
2022-10-30T19:21:16.659Z,423.27
2022-10-30T19:23:44.674Z,443.85
2022-10-30T19:26:14.765Z,424.70
2022-10-30T19:28:43.026Z,428.13
2022-10-30T19:31:14.020Z,443.20
2022-10-30T19:33:41.821Z,436.70
2022-10-30T19:39:11.024Z,434.83
2022-10-30T19:41:39.849Z,415.80
2022-10-30T19:44:07.507Z,406.80
2022-10-30T19:46:35.267Z,412.95
2022-10-30T19:49:15.295Z,420.92
2022-10-30T19:51:43.000Z,418.17
2022-10-30T19:54:12.002Z,421.75
2022-10-30T19:56:39.640Z,422.08
2022-10-30T19:59:10.485Z,407.90
2022-10-30T20:01:38.297Z,407.33
2022-10-30T20:04:06.024Z,415.58
2022-10-30T20:06:33.594Z,396.02
2022-10-30T20:09:02.452Z,412.65
2022-10-30T20:11:31.864Z,420.48
2022-10-30T20:13:59.520Z,407.92
2022-10-30T20:16:27.159Z,409.13
2022-10-30T20:18:54.788Z,416.70
2022-10-30T20:21:22.474Z,417.77
2022-10-30T20:23:50.920Z,411.92
2022-10-30T20:26:24.870Z,402.67
2022-10-30T20:28:54.329Z,391.58
2022-10-30T20:31:22.334Z,392.63
2022-10-30T20:33:49.970Z,411.35
2022-10-30T20:36:17.596Z,412.73
2022-10-30T20:38:45.515Z,419.23
2022-10-30T20:41:20.895Z,432.38
2022-10-30T20:43:49.890Z,379.45
2022-10-30T20:46:19.497Z,395.75
2022-10-30T20:48:47.321Z,415.85
2022-10-30T20:51:15.723Z,418.23
2022-10-30T20:53:43.568Z,396.52
2022-10-30T20:56:11.776Z,443.38
2022-10-30T20:58:39.419Z,408.45
2022-10-30T21:01:07.411Z,416.33
2022-10-30T21:04:00.541Z,399.40
2022-10-30T21:06:49.782Z,402.27
2022-10-30T21:09:37.694Z,400.83
2022-10-30T21:12:25.952Z,398.85
2022-10-30T21:15:13.894Z,390.80
2022-10-30T21:18:02.216Z,382.23
2022-10-30T21:20:51.759Z,401.58
2022-10-30T21:23:39.676Z,384.92
2022-10-30T21:26:27.619Z,400.67
2022-10-30T21:29:15.572Z,393.35
2022-10-30T21:32:03.462Z,415.13
2022-10-30T21:34:51.395Z,402.02
2022-10-30T21:37:40.863Z,373.15
2022-10-30T21:40:28.828Z,389.40
2022-10-30T21:43:16.763Z,383.20
2022-10-30T21:46:06.245Z,380.98
2022-10-30T21:48:54.802Z,386.30
2022-10-30T21:51:42.705Z,373.67
2022-10-30T21:54:31.970Z,370.50
2022-10-30T21:57:19.970Z,395.35
2022-10-30T22:00:09.238Z,395.73
2022-10-30T22:02:57.282Z,392.83
2022-10-30T22:05:45.188Z,382.48
2022-10-30T22:08:33.576Z,362.85
2022-10-30T22:11:24.473Z,376.90
2022-10-30T22:14:12.658Z,377.45
2022-10-30T22:17:00.569Z,379.10
2022-10-30T22:19:48.513Z,376.02
2022-10-30T22:22:36.398Z,384.45
2022-10-30T22:25:24.272Z,394.33
2022-10-30T22:28:13.554Z,373.35
2022-10-30T22:31:05.100Z,375.58
2022-10-30T22:33:53.467Z,400.23
2022-10-30T22:36:41.415Z,395.80
2022-10-30T22:39:29.328Z,397.95
2022-10-30T22:42:17.268Z,372.80
2022-10-30T22:45:07.837Z,396.40
2022-10-30T22:47:56.111Z,376.95
2022-10-30T22:50:44.187Z,391.25
2022-10-30T22:53:33.094Z,383.25
2022-10-30T22:56:22.885Z,363.77
2022-10-30T22:59:13.444Z,389.13
2022-10-30T23:02:02.785Z,377.92
2022-10-30T23:04:50.778Z,379.77
2022-10-30T23:07:38.692Z,357.98
2022-10-30T23:10:26.609Z,374.60
2022-10-30T23:13:14.540Z,369.48
2022-10-30T23:16:03.081Z,368.10
2022-10-30T23:18:55.351Z,359.90
2022-10-30T23:21:43.294Z,355.40
2022-10-30T23:24:31.221Z,379.17
2022-10-30T23:27:19.145Z,348.67
2022-10-30T23:30:08.717Z,369.48
2022-10-30T23:32:56.815Z,363.75
2022-10-30T23:35:46.179Z,374.60
2022-10-30T23:38:34.217Z,362.52
2022-10-30T23:41:22.338Z,378.35
2022-10-30T23:44:13.199Z,367.77
2022-10-30T23:47:01.286Z,374.90
2022-10-30T23:49:49.191Z,369.27
2022-10-30T23:52:38.399Z,355.70
2022-10-30T23:55:26.326Z,387.38
2022-10-30T23:58:14.266Z,361.65
